KRNV

Cleveland Municipal Airport

Cleveland, Mississippi, USA
METAR KRNV 191455Z AUTO 18006KT 10SM OVC049 00/M03 A3034 RMK AO2 T00001034
Observed Flight Rules
Jan-19 @ 14:55 UTC (28 minutes ago) Visual Flight Rules
Wind Visibility Clouds
180° at 6 knots 10 miles
  • Overcast at 4,900' AGL
Temperatures Readings
Current 0°C / 32°F
Dewpoint -3°C / 27°F
Humidity 80%
Altimeter 30.34" Hg
Pressure 1027 hPa
Elevation 41
METAR KRNV 191455Z AUTO 18006KT 10SM OVC049 00/M03 A3034 RMK AO2 T00001034
Observed Flight Rules
Jan-19 @ 14:55 UTC
(28 minutes ago)
VFR
Wind Visibility
180° at 6 knots 10 miles
Clouds
  • Overcast at 4,900' AGL
Temperature Dewpoint
0°C / 32°F -3°C / 27°F
Humidity Altimeter Pressure
80% 30.34" Hg 1027 hPa